sensor_id;sensor_type;location;lat;lon;timestamp;P1;durP1;ratioP1;P2;durP2;ratioP2
37777;SDS011;23615;51.506;7.678;2023-05-21T00:01:59;3.90;;;3.57;;
37777;SDS011;23615;51.506;7.678;2023-05-21T00:04:24;4.17;;;3.80;;
37777;SDS011;23615;51.506;7.678;2023-05-21T00:06:50;3.93;;;3.53;;
37777;SDS011;23615;51.506;7.678;2023-05-21T00:09:16;4.47;;;4.07;;
37777;SDS011;23615;51.506;7.678;2023-05-21T00:11:41;3.80;;;3.50;;
37777;SDS011;23615;51.506;7.678;2023-05-21T00:14:06;3.90;;;3.60;;
37777;SDS011;23615;51.506;7.678;2023-05-21T00:16:31;4.37;;;3.97;;
37777;SDS011;23615;51.506;7.678;2023-05-21T00:18:57;5.13;;;4.63;;
37777;SDS011;23615;51.506;7.678;2023-05-21T00:21:22;4.80;;;4.30;;
37777;SDS011;23615;51.506;7.678;2023-05-21T00:23:50;5.13;;;4.43;;
37777;SDS011;23615;51.506;7.678;2023-05-21T00:26:19;4.60;;;4.20;;
37777;SDS011;23615;51.506;7.678;2023-05-21T00:28:45;4.00;;;3.70;;
37777;SDS011;23615;51.506;7.678;2023-05-21T00:31:10;4.83;;;4.43;;
37777;SDS011;23615;51.506;7.678;2023-05-21T00:33:36;6.10;;;4.67;;
37777;SDS011;23615;51.506;7.678;2023-05-21T00:36:01;5.10;;;4.60;;
37777;SDS011;23615;51.506;7.678;2023-05-21T00:38:27;4.70;;;4.30;;
37777;SDS011;23615;51.506;7.678;2023-05-21T00:40:52;4.70;;;4.30;;
37777;SDS011;23615;51.506;7.678;2023-05-21T00:43:17;4.20;;;3.80;;
37777;SDS011;23615;51.506;7.678;2023-05-21T00:45:43;4.18;;;3.78;;
37777;SDS011;23615;51.506;7.678;2023-05-21T00:48:10;3.95;;;3.65;;
37777;SDS011;23615;51.506;7.678;2023-05-21T00:50:36;4.32;;;3.92;;
37777;SDS011;23615;51.506;7.678;2023-05-21T00:53:03;4.75;;;4.13;;
37777;SDS011;23615;51.506;7.678;2023-05-21T00:55:33;4.72;;;4.25;;
37777;SDS011;23615;51.506;7.678;2023-05-21T00:57:59;4.80;;;4.03;;
37777;SDS011;23615;51.506;7.678;2023-05-21T01:00:24;3.77;;;3.33;;
37777;SDS011;23615;51.506;7.678;2023-05-21T01:02:50;3.97;;;3.60;;
37777;SDS011;23615;51.506;7.678;2023-05-21T01:05:15;3.60;;;3.30;;
37777;SDS011;23615;51.506;7.678;2023-05-21T01:07:41;3.83;;;3.53;;
37777;SDS011;23615;51.506;7.678;2023-05-21T01:10:07;3.70;;;3.40;;
37777;SDS011;23615;51.506;7.678;2023-05-21T01:12:35;3.72;;;3.42;;
37777;SDS011;23615;51.506;7.678;2023-05-21T01:15:03;4.07;;;3.67;;
37777;SDS011;23615;51.506;7.678;2023-05-21T01:17:29;5.05;;;4.28;;
37777;SDS011;23615;51.506;7.678;2023-05-21T01:19:58;4.28;;;3.88;;
37777;SDS011;23615;51.506;7.678;2023-05-21T01:22:24;4.22;;;3.83;;
37777;SDS011;23615;51.506;7.678;2023-05-21T01:24:52;4.68;;;4.18;;
37777;SDS011;23615;51.506;7.678;2023-05-21T01:27:19;4.45;;;4.05;;
37777;SDS011;23615;51.506;7.678;2023-05-21T01:29:44;5.30;;;4.80;;
37777;SDS011;23615;51.506;7.678;2023-05-21T01:32:13;5.03;;;4.63;;
37777;SDS011;23615;51.506;7.678;2023-05-21T01:34:49;5.80;;;5.07;;
37777;SDS011;23615;51.506;7.678;2023-05-21T01:40:20;5.80;;;5.03;;
37777;SDS011;23615;51.506;7.678;2023-05-21T01:42:55;5.18;;;4.68;;
37777;SDS011;23615;51.506;7.678;2023-05-21T01:45:22;4.80;;;4.32;;
37777;SDS011;23615;51.506;7.678;2023-05-21T01:47:52;5.38;;;4.88;;
37777;SDS011;23615;51.506;7.678;2023-05-21T01:50:19;4.82;;;4.35;;
37777;SDS011;23615;51.506;7.678;2023-05-21T01:52:51;4.82;;;4.38;;
37777;SDS011;23615;51.506;7.678;2023-05-21T01:55:18;6.57;;;5.35;;
37777;SDS011;23615;51.506;7.678;2023-05-21T01:57:48;5.80;;;5.15;;
37777;SDS011;23615;51.506;7.678;2023-05-21T02:00:15;5.30;;;4.80;;
37777;SDS011;23615;51.506;7.678;2023-05-21T02:02:40;5.67;;;5.07;;
37777;SDS011;23615;51.506;7.678;2023-05-21T02:05:06;5.20;;;4.70;;
37777;SDS011;23615;51.506;7.678;2023-05-21T02:07:32;6.22;;;4.53;;
37777;SDS011;23615;51.506;7.678;2023-05-21T02:09:57;4.80;;;4.30;;
37777;SDS011;23615;51.506;7.678;2023-05-21T02:12:23;4.07;;;3.77;;
37777;SDS011;23615;51.506;7.678;2023-05-21T02:14:48;4.50;;;4.10;;
37777;SDS011;23615;51.506;7.678;2023-05-21T02:17:14;4.47;;;3.97;;
37777;SDS011;23615;51.506;7.678;2023-05-21T02:19:41;4.25;;;3.95;;
37777;SDS011;23615;51.506;7.678;2023-05-21T02:22:08;4.25;;;3.90;;
37777;SDS011;23615;51.506;7.678;2023-05-21T02:24:34;4.97;;;4.38;;
37777;SDS011;23615;51.506;7.678;2023-05-21T02:27:00;4.65;;;4.07;;
37777;SDS011;23615;51.506;7.678;2023-05-21T02:29:25;4.33;;;3.93;;
37777;SDS011;23615;51.506;7.678;2023-05-21T02:31:50;3.70;;;3.27;;
37777;SDS011;23615;51.506;7.678;2023-05-21T02:34:16;4.40;;;4.00;;
37777;SDS011;23615;51.506;7.678;2023-05-21T02:36:44;4.05;;;3.70;;
37777;SDS011;23615;51.506;7.678;2023-05-21T02:39:12;3.78;;;3.42;;
37777;SDS011;23615;51.506;7.678;2023-05-21T02:41:37;3.80;;;3.50;;
37777;SDS011;23615;51.506;7.678;2023-05-21T02:44:03;4.03;;;3.63;;
37777;SDS011;23615;51.506;7.678;2023-05-21T02:46:28;4.40;;;4.00;;
37777;SDS011;23615;51.506;7.678;2023-05-21T02:48:53;3.73;;;3.43;;
37777;SDS011;23615;51.506;7.678;2023-05-21T02:51:19;3.60;;;3.30;;
37777;SDS011;23615;51.506;7.678;2023-05-21T02:53:44;4.00;;;3.70;;
37777;SDS011;23615;51.506;7.678;2023-05-21T02:56:09;3.70;;;3.40;;
37777;SDS011;23615;51.506;7.678;2023-05-21T02:58:36;3.53;;;3.22;;
37777;SDS011;23615;51.506;7.678;2023-05-21T03:01:02;3.60;;;3.30;;
37777;SDS011;23615;51.506;7.678;2023-05-21T03:03:27;3.90;;;3.50;;
37777;SDS011;23615;51.506;7.678;2023-05-21T03:05:52;4.00;;;3.60;;
37777;SDS011;23615;51.506;7.678;2023-05-21T03:08:17;4.10;;;3.70;;
37777;SDS011;23615;51.506;7.678;2023-05-21T03:10:43;3.33;;;3.03;;
37777;SDS011;23615;51.506;7.678;2023-05-21T03:13:08;3.37;;;3.07;;
37777;SDS011;23615;51.506;7.678;2023-05-21T03:15:33;3.30;;;3.00;;
37777;SDS011;23615;51.506;7.678;2023-05-21T03:17:59;3.00;;;2.80;;
37777;SDS011;23615;51.506;7.678;2023-05-21T03:20:25;3.13;;;2.93;;
37777;SDS011;23615;51.506;7.678;2023-05-21T03:22:51;3.30;;;3.00;;
37777;SDS011;23615;51.506;7.678;2023-05-21T03:25:18;3.20;;;2.92;;
37777;SDS011;23615;51.506;7.678;2023-05-21T03:27:45;4.05;;;3.65;;
37777;SDS011;23615;51.506;7.678;2023-05-21T03:30:10;3.38;;;3.08;;
37777;SDS011;23615;51.506;7.678;2023-05-21T03:32:36;3.10;;;2.90;;
37777;SDS011;23615;51.506;7.678;2023-05-21T03:35:02;3.00;;;2.63;;
37777;SDS011;23615;51.506;7.678;2023-05-21T03:37:29;3.10;;;2.90;;
37777;SDS011;23615;51.506;7.678;2023-05-21T03:39:54;3.17;;;2.87;;
37777;SDS011;23615;51.506;7.678;2023-05-21T03:42:19;3.40;;;3.10;;
37777;SDS011;23615;51.506;7.678;2023-05-21T03:44:44;2.97;;;2.67;;
37777;SDS011;23615;51.506;7.678;2023-05-21T03:47:10;2.90;;;2.70;;
37777;SDS011;23615;51.506;7.678;2023-05-21T03:49:35;2.53;;;2.33;;
37777;SDS011;23615;51.506;7.678;2023-05-21T03:52:00;3.40;;;3.10;;
37777;SDS011;23615;51.506;7.678;2023-05-21T03:54:25;2.73;;;2.53;;
37777;SDS011;23615;51.506;7.678;2023-05-21T03:56:51;2.50;;;2.30;;
37777;SDS011;23615;51.506;7.678;2023-05-21T03:59:16;2.93;;;2.73;;
37777;SDS011;23615;51.506;7.678;2023-05-21T04:01:41;2.85;;;2.65;;
37777;SDS011;23615;51.506;7.678;2023-05-21T04:04:07;3.17;;;2.88;;
37777;SDS011;23615;51.506;7.678;2023-05-21T04:06:32;3.67;;;3.30;;
37777;SDS011;23615;51.506;7.678;2023-05-21T04:08:58;3.30;;;3.00;;
37777;SDS011;23615;51.506;7.678;2023-05-21T04:11:23;3.77;;;3.37;;
37777;SDS011;23615;51.506;7.678;2023-05-21T04:13:48;3.47;;;3.17;;
37777;SDS011;23615;51.506;7.678;2023-05-21T04:16:14;3.63;;;3.33;;
37777;SDS011;23615;51.506;7.678;2023-05-21T04:18:43;3.20;;;2.90;;
37777;SDS011;23615;51.506;7.678;2023-05-21T04:21:09;2.70;;;2.50;;
37777;SDS011;23615;51.506;7.678;2023-05-21T04:23:35;3.15;;;2.85;;
37777;SDS011;23615;51.506;7.678;2023-05-21T04:26:00;3.10;;;2.90;;
37777;SDS011;23615;51.506;7.678;2023-05-21T04:28:26;3.23;;;2.93;;
37777;SDS011;23615;51.506;7.678;2023-05-21T04:30:52;3.70;;;3.40;;
37777;SDS011;23615;51.506;7.678;2023-05-21T04:33:18;3.50;;;3.20;;
37777;SDS011;23615;51.506;7.678;2023-05-21T04:35:48;4.23;;;3.83;;
37777;SDS011;23615;51.506;7.678;2023-05-21T04:38:14;3.65;;;3.35;;
37777;SDS011;23615;51.506;7.678;2023-05-21T04:40:43;3.60;;;3.28;;
37777;SDS011;23615;51.506;7.678;2023-05-21T04:43:09;4.87;;;4.47;;
37777;SDS011;23615;51.506;7.678;2023-05-21T04:45:35;4.25;;;3.95;;
37777;SDS011;23615;51.506;7.678;2023-05-21T04:48:00;4.38;;;3.97;;
37777;SDS011;23615;51.506;7.678;2023-05-21T04:50:26;4.63;;;4.22;;
37777;SDS011;23615;51.506;7.678;2023-05-21T04:52:54;4.00;;;3.70;;
37777;SDS011;23615;51.506;7.678;2023-05-21T04:55:20;3.55;;;3.20;;
37777;SDS011;23615;51.506;7.678;2023-05-21T04:57:46;3.65;;;3.35;;
37777;SDS011;23615;51.506;7.678;2023-05-21T05:00:12;4.37;;;3.97;;
37777;SDS011;23615;51.506;7.678;2023-05-21T05:02:37;4.80;;;4.32;;
37777;SDS011;23615;51.506;7.678;2023-05-21T05:05:03;4.23;;;3.83;;
37777;SDS011;23615;51.506;7.678;2023-05-21T05:07:28;5.22;;;4.72;;
37777;SDS011;23615;51.506;7.678;2023-05-21T05:09:53;5.43;;;4.93;;
37777;SDS011;23615;51.506;7.678;2023-05-21T05:12:19;4.63;;;4.17;;
37777;SDS011;23615;51.506;7.678;2023-05-21T05:14:44;8.07;;;6.30;;
37777;SDS011;23615;51.506;7.678;2023-05-21T05:17:09;5.77;;;5.27;;
37777;SDS011;23615;51.506;7.678;2023-05-21T05:19:38;4.95;;;4.50;;
37777;SDS011;23615;51.506;7.678;2023-05-21T05:22:03;4.37;;;4.07;;
37777;SDS011;23615;51.506;7.678;2023-05-21T05:24:29;6.10;;;5.50;;
37777;SDS011;23615;51.506;7.678;2023-05-21T05:26:54;5.60;;;5.00;;
37777;SDS011;23615;51.506;7.678;2023-05-21T05:29:19;6.60;;;6.00;;
37777;SDS011;23615;51.506;7.678;2023-05-21T05:31:45;5.80;;;5.30;;
37777;SDS011;23615;51.506;7.678;2023-05-21T05:34:10;6.33;;;5.73;;
37777;SDS011;23615;51.506;7.678;2023-05-21T05:36:35;6.27;;;5.70;;
37777;SDS011;23615;51.506;7.678;2023-05-21T05:39:00;6.10;;;5.60;;
37777;SDS011;23615;51.506;7.678;2023-05-21T05:41:26;7.33;;;6.63;;
37777;SDS011;23615;51.506;7.678;2023-05-21T05:43:51;6.33;;;5.73;;
37777;SDS011;23615;51.506;7.678;2023-05-21T05:46:16;9.47;;;7.03;;
37777;SDS011;23615;51.506;7.678;2023-05-21T05:48:41;6.90;;;5.90;;
37777;SDS011;23615;51.506;7.678;2023-05-21T05:51:07;6.50;;;5.90;;
37777;SDS011;23615;51.506;7.678;2023-05-21T05:53:32;7.00;;;6.40;;
37777;SDS011;23615;51.506;7.678;2023-05-21T05:55:57;5.43;;;5.03;;
37777;SDS011;23615;51.506;7.678;2023-05-21T05:58:23;7.05;;;6.20;;
37777;SDS011;23615;51.506;7.678;2023-05-21T06:00:49;5.63;;;5.17;;
37777;SDS011;23615;51.506;7.678;2023-05-21T06:03:14;7.05;;;6.32;;
37777;SDS011;23615;51.506;7.678;2023-05-21T06:05:40;6.80;;;5.60;;
37777;SDS011;23615;51.506;7.678;2023-05-21T06:08:05;4.63;;;4.23;;
37777;SDS011;23615;51.506;7.678;2023-05-21T06:10:30;6.13;;;5.57;;
37777;SDS011;23615;51.506;7.678;2023-05-21T06:12:56;7.67;;;6.80;;
37777;SDS011;23615;51.506;7.678;2023-05-21T06:15:21;6.27;;;5.67;;
37777;SDS011;23615;51.506;7.678;2023-05-21T06:17:46;6.60;;;5.93;;
37777;SDS011;23615;51.506;7.678;2023-05-21T06:20:12;6.77;;;6.10;;
37777;SDS011;23615;51.506;7.678;2023-05-21T06:22:37;6.50;;;5.90;;
37777;SDS011;23615;51.506;7.678;2023-05-21T06:25:02;5.90;;;5.30;;
37777;SDS011;23615;51.506;7.678;2023-05-21T06:27:28;6.80;;;6.10;;
37777;SDS011;23615;51.506;7.678;2023-05-21T06:29:54;6.18;;;5.57;;
37777;SDS011;23615;51.506;7.678;2023-05-21T06:32:19;6.20;;;5.67;;
37777;SDS011;23615;51.506;7.678;2023-05-21T06:34:45;6.00;;;5.45;;
37777;SDS011;23615;51.506;7.678;2023-05-21T06:37:10;8.30;;;5.90;;
37777;SDS011;23615;51.506;7.678;2023-05-21T06:39:36;6.33;;;5.73;;
37777;SDS011;23615;51.506;7.678;2023-05-21T06:42:01;5.80;;;5.30;;
37777;SDS011;23615;51.506;7.678;2023-05-21T06:44:26;7.60;;;6.90;;
37777;SDS011;23615;51.506;7.678;2023-05-21T06:46:51;7.07;;;6.37;;
37777;SDS011;23615;51.506;7.678;2023-05-21T06:49:17;6.40;;;5.80;;
37777;SDS011;23615;51.506;7.678;2023-05-21T06:51:42;6.63;;;6.03;;
37777;SDS011;23615;51.506;7.678;2023-05-21T06:54:07;6.33;;;5.73;;
37777;SDS011;23615;51.506;7.678;2023-05-21T06:56:32;6.87;;;6.27;;
37777;SDS011;23615;51.506;7.678;2023-05-21T06:58:58;6.27;;;5.73;;
37777;SDS011;23615;51.506;7.678;2023-05-21T07:01:23;6.83;;;6.23;;
37777;SDS011;23615;51.506;7.678;2023-05-21T07:03:48;6.20;;;5.70;;
37777;SDS011;23615;51.506;7.678;2023-05-21T07:06:14;7.97;;;7.00;;
37777;SDS011;23615;51.506;7.678;2023-05-21T07:08:40;6.30;;;5.63;;
37777;SDS011;23615;51.506;7.678;2023-05-21T07:11:06;6.30;;;5.70;;
37777;SDS011;23615;51.506;7.678;2023-05-21T07:13:31;6.23;;;5.63;;
37777;SDS011;23615;51.506;7.678;2023-05-21T07:15:56;5.90;;;5.27;;
37777;SDS011;23615;51.506;7.678;2023-05-21T07:18:21;7.43;;;6.73;;
37777;SDS011;23615;51.506;7.678;2023-05-21T07:20:47;8.50;;;7.40;;
37777;SDS011;23615;51.506;7.678;2023-05-21T07:23:12;6.93;;;6.23;;
37777;SDS011;23615;51.506;7.678;2023-05-21T07:25:37;8.10;;;7.37;;
37777;SDS011;23615;51.506;7.678;2023-05-21T07:28:02;7.57;;;6.87;;
37777;SDS011;23615;51.506;7.678;2023-05-21T07:30:28;6.57;;;5.97;;
37777;SDS011;23615;51.506;7.678;2023-05-21T07:32:53;7.07;;;6.37;;
37777;SDS011;23615;51.506;7.678;2023-05-21T07:35:18;7.00;;;6.40;;
37777;SDS011;23615;51.506;7.678;2023-05-21T07:37:44;7.53;;;6.83;;
37777;SDS011;23615;51.506;7.678;2023-05-21T07:40:10;7.05;;;6.35;;
37777;SDS011;23615;51.506;7.678;2023-05-21T07:42:36;7.47;;;6.78;;
37777;SDS011;23615;51.506;7.678;2023-05-21T07:45:01;8.60;;;7.17;;
37777;SDS011;23615;51.506;7.678;2023-05-21T07:47:27;7.75;;;7.05;;
37777;SDS011;23615;51.506;7.678;2023-05-21T07:49:52;6.47;;;5.88;;
37777;SDS011;23615;51.506;7.678;2023-05-21T07:52:17;8.37;;;7.57;;
37777;SDS011;23615;51.506;7.678;2023-05-21T07:54:43;7.27;;;6.57;;
37777;SDS011;23615;51.506;7.678;2023-05-21T07:57:08;7.50;;;6.80;;
37777;SDS011;23615;51.506;7.678;2023-05-21T07:59:33;8.17;;;6.40;;
37777;SDS011;23615;51.506;7.678;2023-05-21T08:01:58;9.40;;;8.03;;
37777;SDS011;23615;51.506;7.678;2023-05-21T08:04:24;6.57;;;5.97;;
37777;SDS011;23615;51.506;7.678;2023-05-21T08:06:50;7.35;;;6.68;;
37777;SDS011;23615;51.506;7.678;2023-05-21T08:09:15;8.53;;;7.57;;
37777;SDS011;23615;51.506;7.678;2023-05-21T08:11:40;7.90;;;7.10;;
37777;SDS011;23615;51.506;7.678;2023-05-21T08:14:05;6.80;;;6.20;;
37777;SDS011;23615;51.506;7.678;2023-05-21T08:16:31;7.90;;;7.10;;
37777;SDS011;23615;51.506;7.678;2023-05-21T08:18:56;8.15;;;7.35;;
37777;SDS011;23615;51.506;7.678;2023-05-21T08:21:21;8.70;;;7.90;;
37777;SDS011;23615;51.506;7.678;2023-05-21T08:23:47;7.80;;;7.10;;
37777;SDS011;23615;51.506;7.678;2023-05-21T08:26:12;8.00;;;7.30;;
37777;SDS011;23615;51.506;7.678;2023-05-21T08:28:40;9.18;;;8.27;;
37777;SDS011;23615;51.506;7.678;2023-05-21T08:31:06;8.43;;;7.63;;
37777;SDS011;23615;51.506;7.678;2023-05-21T08:33:33;10.20;;;8.07;;
37777;SDS011;23615;51.506;7.678;2023-05-21T08:36:01;7.63;;;6.88;;
37777;SDS011;23615;51.506;7.678;2023-05-21T08:38:26;10.07;;;8.37;;
37777;SDS011;23615;51.506;7.678;2023-05-21T08:40:51;8.70;;;7.90;;
37777;SDS011;23615;51.506;7.678;2023-05-21T08:43:19;9.93;;;8.35;;
37777;SDS011;23615;51.506;7.678;2023-05-21T08:45:46;9.90;;;8.88;;
37777;SDS011;23615;51.506;7.678;2023-05-21T08:48:18;9.60;;;8.70;;
37777;SDS011;23615;51.506;7.678;2023-05-21T08:50:46;9.30;;;8.50;;
37777;SDS011;23615;51.506;7.678;2023-05-21T08:53:13;9.10;;;8.20;;
37777;SDS011;23615;51.506;7.678;2023-05-21T08:55:38;11.07;;;9.90;;
37777;SDS011;23615;51.506;7.678;2023-05-21T08:58:06;10.15;;;9.23;;
37777;SDS011;23615;51.506;7.678;2023-05-21T09:00:32;9.57;;;8.63;;
37777;SDS011;23615;51.506;7.678;2023-05-21T09:02:57;11.77;;;10.33;;
37777;SDS011;23615;51.506;7.678;2023-05-21T09:05:24;12.82;;;10.55;;
37777;SDS011;23615;51.506;7.678;2023-05-21T09:08:10;9.63;;;8.60;;
37777;SDS011;23615;51.506;7.678;2023-05-21T09:10:40;9.30;;;8.40;;
37777;SDS011;23615;51.506;7.678;2023-05-21T09:13:09;9.20;;;8.30;;
37777;SDS011;23615;51.506;7.678;2023-05-21T09:15:35;11.60;;;9.75;;
37777;SDS011;23615;51.506;7.678;2023-05-21T09:18:01;9.13;;;8.32;;
37777;SDS011;23615;51.506;7.678;2023-05-21T09:20:27;11.93;;;10.70;;
37777;SDS011;23615;51.506;7.678;2023-05-21T09:22:52;10.82;;;9.70;;
37777;SDS011;23615;51.506;7.678;2023-05-21T09:25:22;11.40;;;10.35;;
37777;SDS011;23615;51.506;7.678;2023-05-21T09:27:49;13.27;;;11.02;;
37777;SDS011;23615;51.506;7.678;2023-05-21T09:30:16;10.93;;;9.90;;
37777;SDS011;23615;51.506;7.678;2023-05-21T09:32:43;11.43;;;9.55;;
37777;SDS011;23615;51.506;7.678;2023-05-21T09:35:12;9.52;;;8.63;;
37777;SDS011;23615;51.506;7.678;2023-05-21T09:37:39;10.98;;;9.88;;
37777;SDS011;23615;51.506;7.678;2023-05-21T09:40:11;11.27;;;10.10;;
37777;SDS011;23615;51.506;7.678;2023-05-21T09:42:46;11.02;;;9.93;;
37777;SDS011;23615;51.506;7.678;2023-05-21T09:47:45;10.63;;;9.57;;
37777;SDS011;23615;51.506;7.678;2023-05-21T09:50:21;10.90;;;9.82;;
37777;SDS011;23615;51.506;7.678;2023-05-21T09:52:49;10.30;;;9.27;;
37777;SDS011;23615;51.506;7.678;2023-05-21T09:55:16;10.00;;;9.00;;
37777;SDS011;23615;51.506;7.678;2023-05-21T09:57:43;11.02;;;9.63;;
37777;SDS011;23615;51.506;7.678;2023-05-21T10:00:20;11.43;;;10.27;;
37777;SDS011;23615;51.506;7.678;2023-05-21T10:02:47;11.30;;;10.20;;
37777;SDS011;23615;51.506;7.678;2023-05-21T10:05:14;12.20;;;11.00;;
37777;SDS011;23615;51.506;7.678;2023-05-21T10:07:41;10.47;;;9.47;;
37777;SDS011;23615;51.506;7.678;2023-05-21T10:10:12;11.63;;;10.50;;
37777;SDS011;23615;51.506;7.678;2023-05-21T10:12:40;9.88;;;8.95;;
37777;SDS011;23615;51.506;7.678;2023-05-21T10:15:08;9.95;;;9.05;;
37777;SDS011;23615;51.506;7.678;2023-05-21T10:17:41;10.85;;;9.77;;
37777;SDS011;23615;51.506;7.678;2023-05-21T10:20:09;11.43;;;9.98;;
37777;SDS011;23615;51.506;7.678;2023-05-21T10:22:36;12.80;;;10.57;;
37777;SDS011;23615;51.506;7.678;2023-05-21T10:25:02;12.83;;;11.53;;
37777;SDS011;23615;51.506;7.678;2023-05-21T10:27:29;11.40;;;10.30;;
37777;SDS011;23615;51.506;7.678;2023-05-21T10:29:55;10.60;;;9.60;;
37777;SDS011;23615;51.506;7.678;2023-05-21T10:32:23;11.50;;;10.43;;
37777;SDS011;23615;51.506;7.678;2023-05-21T10:34:50;12.02;;;10.80;;
37777;SDS011;23615;51.506;7.678;2023-05-21T10:37:17;12.60;;;11.07;;
37777;SDS011;23615;51.506;7.678;2023-05-21T10:39:44;10.40;;;9.45;;
37777;SDS011;23615;51.506;7.678;2023-05-21T10:47:26;12.30;;;10.98;;
37777;SDS011;23615;51.506;7.678;2023-05-21T10:55:55;10.57;;;9.47;;
37777;SDS011;23615;51.506;7.678;2023-05-21T10:58:40;11.47;;;10.27;;
37777;SDS011;23615;51.506;7.678;2023-05-21T11:01:18;11.65;;;10.55;;
37777;SDS011;23615;51.506;7.678;2023-05-21T11:03:45;12.25;;;10.50;;
37777;SDS011;23615;51.506;7.678;2023-05-21T11:06:12;12.60;;;11.30;;
37777;SDS011;23615;51.506;7.678;2023-05-21T11:08:47;11.43;;;10.20;;
37777;SDS011;23615;51.506;7.678;2023-05-21T11:11:12;11.53;;;10.37;;
37777;SDS011;23615;51.506;7.678;2023-05-21T11:13:45;11.13;;;9.98;;
37777;SDS011;23615;51.506;7.678;2023-05-21T11:16:15;11.83;;;10.60;;
37777;SDS011;23615;51.506;7.678;2023-05-21T11:21:10;12.32;;;11.13;;
37777;SDS011;23615;51.506;7.678;2023-05-21T11:26:16;10.13;;;9.13;;
37777;SDS011;23615;51.506;7.678;2023-05-21T11:28:49;10.98;;;9.82;;
37777;SDS011;23615;51.506;7.678;2023-05-21T11:31:21;14.15;;;12.75;;
37777;SDS011;23615;51.506;7.678;2023-05-21T11:36:35;13.15;;;11.00;;
37777;SDS011;23615;51.506;7.678;2023-05-21T11:39:08;12.98;;;11.77;;
37777;SDS011;23615;51.506;7.678;2023-05-21T11:41:52;12.60;;;10.88;;
37777;SDS011;23615;51.506;7.678;2023-05-21T11:44:37;12.37;;;11.17;;
37777;SDS011;23615;51.506;7.678;2023-05-21T11:47:06;10.97;;;9.90;;
37777;SDS011;23615;51.506;7.678;2023-05-21T11:49:33;11.98;;;10.77;;
37777;SDS011;23615;51.506;7.678;2023-05-21T11:51:59;12.05;;;10.75;;
37777;SDS011;23615;51.506;7.678;2023-05-21T11:54:26;13.20;;;11.93;;
37777;SDS011;23615;51.506;7.678;2023-05-21T11:56:52;12.73;;;11.43;;
37777;SDS011;23615;51.506;7.678;2023-05-21T11:59:18;10.63;;;9.63;;
37777;SDS011;23615;51.506;7.678;2023-05-21T12:01:44;13.60;;;12.23;;
37777;SDS011;23615;51.506;7.678;2023-05-21T12:04:10;10.57;;;9.53;;
37777;SDS011;23615;51.506;7.678;2023-05-21T12:06:36;10.80;;;9.77;;
37777;SDS011;23615;51.506;7.678;2023-05-21T12:09:02;12.05;;;10.85;;
37777;SDS011;23615;51.506;7.678;2023-05-21T12:11:28;11.68;;;10.48;;
37777;SDS011;23615;51.506;7.678;2023-05-21T12:13:54;13.07;;;11.60;;
37777;SDS011;23615;51.506;7.678;2023-05-21T12:16:20;11.65;;;10.45;;
37777;SDS011;23615;51.506;7.678;2023-05-21T12:18:46;16.25;;;13.20;;
37777;SDS011;23615;51.506;7.678;2023-05-21T12:21:12;12.37;;;11.17;;
37777;SDS011;23615;51.506;7.678;2023-05-21T12:23:37;11.00;;;9.93;;
37777;SDS011;23615;51.506;7.678;2023-05-21T12:26:02;11.60;;;10.50;;
37777;SDS011;23615;51.506;7.678;2023-05-21T12:28:28;12.57;;;11.38;;
37777;SDS011;23615;51.506;7.678;2023-05-21T12:30:54;11.30;;;10.10;;
37777;SDS011;23615;51.506;7.678;2023-05-21T12:33:19;13.70;;;12.33;;
37777;SDS011;23615;51.506;7.678;2023-05-21T12:35:46;10.13;;;9.07;;
37777;SDS011;23615;51.506;7.678;2023-05-21T12:38:13;11.60;;;10.43;;
37777;SDS011;23615;51.506;7.678;2023-05-21T12:40:39;10.87;;;9.67;;
37777;SDS011;23615;51.506;7.678;2023-05-21T12:43:05;12.53;;;11.23;;
37777;SDS011;23615;51.506;7.678;2023-05-21T12:45:31;12.30;;;11.07;;
37777;SDS011;23615;51.506;7.678;2023-05-21T12:47:59;10.70;;;9.60;;
37777;SDS011;23615;51.506;7.678;2023-05-21T12:50:25;10.63;;;9.63;;
37777;SDS011;23615;51.506;7.678;2023-05-21T12:52:54;10.23;;;9.07;;
37777;SDS011;23615;51.506;7.678;2023-05-21T12:55:21;10.38;;;9.27;;
37777;SDS011;23615;51.506;7.678;2023-05-21T12:57:48;14.05;;;11.93;;
37777;SDS011;23615;51.506;7.678;2023-05-21T13:00:15;11.60;;;10.50;;
37777;SDS011;23615;51.506;7.678;2023-05-21T13:02:47;12.00;;;10.80;;
37777;SDS011;23615;51.506;7.678;2023-05-21T13:05:16;11.90;;;10.73;;
37777;SDS011;23615;51.506;7.678;2023-05-21T13:07:42;12.98;;;11.60;;
37777;SDS011;23615;51.506;7.678;2023-05-21T13:10:10;10.63;;;9.57;;
37777;SDS011;23615;51.506;7.678;2023-05-21T13:12:36;10.45;;;9.48;;
37777;SDS011;23615;51.506;7.678;2023-05-21T13:15:02;10.43;;;9.43;;
37777;SDS011;23615;51.506;7.678;2023-05-21T13:17:28;9.65;;;8.73;;
37777;SDS011;23615;51.506;7.678;2023-05-21T13:20:10;9.77;;;8.87;;
37777;SDS011;23615;51.506;7.678;2023-05-21T13:22:38;11.63;;;10.52;;
37777;SDS011;23615;51.506;7.678;2023-05-21T13:25:10;9.63;;;8.73;;
37777;SDS011;23615;51.506;7.678;2023-05-21T13:27:39;10.25;;;9.35;;
37777;SDS011;23615;51.506;7.678;2023-05-21T13:30:06;10.63;;;9.63;;
37777;SDS011;23615;51.506;7.678;2023-05-21T13:32:32;12.35;;;11.20;;
37777;SDS011;23615;51.506;7.678;2023-05-21T13:34:58;11.02;;;10.00;;
37777;SDS011;23615;51.506;7.678;2023-05-21T13:37:23;11.43;;;10.23;;
37777;SDS011;23615;51.506;7.678;2023-05-21T13:39:48;11.47;;;10.27;;
37777;SDS011;23615;51.506;7.678;2023-05-21T13:42:14;10.05;;;9.05;;
37777;SDS011;23615;51.506;7.678;2023-05-21T13:44:39;12.68;;;11.38;;
37777;SDS011;23615;51.506;7.678;2023-05-21T13:47:05;11.40;;;10.30;;
37777;SDS011;23615;51.506;7.678;2023-05-21T13:49:31;11.47;;;10.37;;
37777;SDS011;23615;51.506;7.678;2023-05-21T13:51:57;12.00;;;10.88;;
37777;SDS011;23615;51.506;7.678;2023-05-21T13:54:24;11.47;;;10.30;;
37777;SDS011;23615;51.506;7.678;2023-05-21T13:56:50;9.43;;;8.53;;
37777;SDS011;23615;51.506;7.678;2023-05-21T13:59:15;10.50;;;9.40;;
37777;SDS011;23615;51.506;7.678;2023-05-21T14:01:40;11.90;;;10.73;;
37777;SDS011;23615;51.506;7.678;2023-05-21T14:04:08;9.95;;;9.05;;
37777;SDS011;23615;51.506;7.678;2023-05-21T14:06:33;9.30;;;8.40;;
37777;SDS011;23615;51.506;7.678;2023-05-21T14:09:00;11.20;;;10.07;;
37777;SDS011;23615;51.506;7.678;2023-05-21T14:11:26;9.67;;;8.77;;
37777;SDS011;23615;51.506;7.678;2023-05-21T14:13:52;11.52;;;10.43;;
37777;SDS011;23615;51.506;7.678;2023-05-21T14:16:18;13.10;;;11.80;;
37777;SDS011;23615;51.506;7.678;2023-05-21T14:18:43;10.25;;;9.35;;
37777;SDS011;23615;51.506;7.678;2023-05-21T14:21:09;11.03;;;9.93;;
37777;SDS011;23615;51.506;7.678;2023-05-21T14:23:34;10.73;;;9.57;;
37777;SDS011;23615;51.506;7.678;2023-05-21T14:25:59;11.47;;;10.27;;
37777;SDS011;23615;51.506;7.678;2023-05-21T14:28:25;10.43;;;9.43;;
37777;SDS011;23615;51.506;7.678;2023-05-21T14:30:50;11.77;;;10.57;;
37777;SDS011;23615;51.506;7.678;2023-05-21T14:33:16;11.15;;;10.05;;
37777;SDS011;23615;51.506;7.678;2023-05-21T14:35:41;9.93;;;9.03;;
37777;SDS011;23615;51.506;7.678;2023-05-21T14:38:08;9.93;;;8.93;;
37777;SDS011;23615;51.506;7.678;2023-05-21T14:40:33;10.73;;;9.63;;
37777;SDS011;23615;51.506;7.678;2023-05-21T14:42:59;11.97;;;10.43;;
37777;SDS011;23615;51.506;7.678;2023-05-21T14:45:24;10.93;;;9.87;;
37777;SDS011;23615;51.506;7.678;2023-05-21T14:47:50;11.13;;;10.05;;
37777;SDS011;23615;51.506;7.678;2023-05-21T14:50:15;11.27;;;10.17;;
37777;SDS011;23615;51.506;7.678;2023-05-21T14:52:41;10.63;;;8.95;;
37777;SDS011;23615;51.506;7.678;2023-05-21T14:55:07;12.20;;;11.10;;
37777;SDS011;23615;51.506;7.678;2023-05-21T14:57:33;10.70;;;9.70;;
37777;SDS011;23615;51.506;7.678;2023-05-21T14:59:58;9.57;;;8.50;;
37777;SDS011;23615;51.506;7.678;2023-05-21T15:02:24;10.27;;;9.27;;